createdAt,value
2023-03-05T00:01:39.440Z,99.67
2023-03-05T00:04:11.627Z,100.00
2023-03-05T00:06:39.978Z,100.00
2023-03-05T00:09:08.331Z,100.00
2023-03-05T00:11:36.293Z,100.00
2023-03-05T00:14:06.385Z,100.00
2023-03-05T00:16:34.958Z,100.00
2023-03-05T00:19:04.833Z,100.00
2023-03-05T00:21:34.794Z,100.00
2023-03-05T00:24:04.824Z,100.00
2023-03-05T00:26:34.601Z,100.00
2023-03-05T00:29:04.401Z,100.00
2023-03-05T00:31:36.967Z,100.00
2023-03-05T00:34:08.570Z,100.00
2023-03-05T00:36:40.209Z,100.00
2023-03-05T00:39:08.465Z,100.00
2023-03-05T00:41:36.369Z,100.00
2023-03-05T00:44:04.532Z,100.00
2023-03-05T00:46:32.595Z,100.00
2023-03-05T00:49:00.615Z,100.00
2023-03-05T00:51:30.029Z,100.00
2023-03-05T00:53:58.160Z,100.00
2023-03-05T00:56:26.218Z,100.00
2023-03-05T00:58:54.477Z,100.00
2023-03-05T01:01:22.507Z,100.00
2023-03-05T01:03:50.553Z,100.00
2023-03-05T01:06:18.516Z,100.00
2023-03-05T01:08:47.869Z,100.00
2023-03-05T01:11:15.855Z,100.00
2023-03-05T01:13:43.892Z,100.00
2023-03-05T01:16:13.665Z,100.00
2023-03-05T01:18:42.270Z,100.00
2023-03-05T01:21:11.825Z,100.00
2023-03-05T01:23:39.796Z,100.00
2023-03-05T01:26:09.710Z,100.00
2023-03-05T01:28:38.439Z,100.00
2023-03-05T01:31:09.712Z,100.00
2023-03-05T01:33:37.733Z,100.00
2023-03-05T01:36:10.151Z,100.00
2023-03-05T01:38:38.064Z,100.00
2023-03-05T01:41:06.193Z,100.00
2023-03-05T01:43:35.515Z,100.00
2023-03-05T01:46:35.487Z,100.00
2023-03-05T01:49:09.174Z,100.00
2023-03-05T01:51:41.369Z,100.00
2023-03-05T01:54:11.796Z,100.00
2023-03-05T01:56:41.622Z,100.00
2023-03-05T01:59:12.164Z,100.00
2023-03-05T02:01:42.621Z,100.00
2023-03-05T02:04:12.769Z,100.00
2023-03-05T02:06:43.759Z,100.00
2023-03-05T02:09:11.733Z,100.00
2023-03-05T02:11:40.630Z,100.00
2023-03-05T02:14:11.116Z,100.00
2023-03-05T02:16:40.027Z,100.00
2023-03-05T02:19:11.989Z,100.00
2023-03-05T02:21:43.932Z,100.00
2023-03-05T02:24:14.218Z,100.00
2023-03-05T02:26:43.256Z,100.00
2023-03-05T02:29:14.097Z,100.00
2023-03-05T02:31:42.072Z,100.00
2023-03-05T02:34:10.156Z,100.00
2023-03-05T02:36:38.193Z,100.00
2023-03-05T02:39:07.698Z,100.00
2023-03-05T02:41:35.629Z,100.00
2023-03-05T02:44:03.648Z,100.00
2023-03-05T02:46:31.514Z,100.00
2023-03-05T02:48:59.440Z,100.00
2023-03-05T02:51:27.332Z,100.00
2023-03-05T02:53:55.295Z,100.00
2023-03-05T02:56:24.588Z,100.00
2023-03-05T02:58:52.501Z,100.00
2023-03-05T03:01:20.487Z,100.00
2023-03-05T03:03:48.494Z,100.00
2023-03-05T03:06:16.399Z,100.00
2023-03-05T03:08:44.327Z,100.00
2023-03-05T03:11:13.424Z,100.00
2023-03-05T03:13:42.876Z,100.00
2023-03-05T03:16:13.330Z,100.00
2023-03-05T03:18:41.935Z,100.00
2023-03-05T03:21:09.833Z,100.00
2023-03-05T03:23:37.768Z,100.00
2023-03-05T03:26:05.942Z,100.00
2023-03-05T03:28:33.944Z,100.00
2023-03-05T03:31:03.301Z,100.00
2023-03-05T03:33:31.304Z,100.00
2023-03-05T03:35:59.244Z,100.00
2023-03-05T03:38:27.316Z,100.00
2023-03-05T03:40:55.199Z,100.00
2023-03-05T03:43:23.197Z,100.00
2023-03-05T03:45:51.118Z,100.00
2023-03-05T03:48:20.480Z,100.00
2023-03-05T03:50:48.402Z,100.00
2023-03-05T03:53:17.565Z,100.00
2023-03-05T03:55:46.573Z,100.00
2023-03-05T03:58:14.614Z,100.00
2023-03-05T04:00:43.105Z,100.00
2023-03-05T04:03:11.092Z,100.00
2023-03-05T04:05:40.378Z,100.00
2023-03-05T04:08:12.135Z,100.00
2023-03-05T04:10:40.436Z,100.00
2023-03-05T04:13:08.855Z,100.00
2023-03-05T04:15:37.019Z,100.00
2023-03-05T04:18:05.184Z,100.00
2023-03-05T04:20:33.072Z,100.00
2023-03-05T04:23:02.363Z,100.00
2023-03-05T04:25:30.287Z,100.00
2023-03-05T04:27:58.196Z,100.00
2023-03-05T04:30:26.167Z,100.00
2023-03-05T04:32:54.322Z,100.00
2023-03-05T04:35:22.427Z,100.00
2023-03-05T04:37:50.798Z,100.00
2023-03-05T04:40:20.758Z,100.00
2023-03-05T04:42:48.740Z,100.00
2023-03-05T04:45:17.334Z,100.00
2023-03-05T04:47:45.463Z,100.00
2023-03-05T04:50:14.143Z,100.00
2023-03-05T04:52:43.569Z,100.00
2023-03-05T04:55:12.717Z,100.00
2023-03-05T04:57:42.526Z,100.00
2023-03-05T05:00:14.470Z,100.00
2023-03-05T05:02:43.150Z,100.00
2023-03-05T05:05:13.252Z,100.00
2023-03-05T05:07:41.248Z,100.00
2023-03-05T05:10:11.093Z,100.00
2023-03-05T05:12:39.534Z,100.00
2023-03-05T05:15:10.910Z,100.00
2023-03-05T05:17:38.875Z,100.00
2023-03-05T05:20:08.867Z,100.00
2023-03-05T05:22:36.854Z,100.00
2023-03-05T05:25:05.648Z,100.00
2023-03-05T05:27:33.614Z,100.00
2023-03-05T05:30:01.991Z,100.00
2023-03-05T05:32:31.413Z,100.00
2023-03-05T05:35:00.138Z,100.00
2023-03-05T05:37:28.870Z,100.00
2023-03-05T05:39:56.791Z,100.00
2023-03-05T05:42:26.144Z,100.00
2023-03-05T05:44:55.607Z,100.00
2023-03-05T05:47:23.714Z,100.00
2023-03-05T05:49:53.144Z,100.00
2023-03-05T05:52:21.048Z,100.00
2023-03-05T05:54:49.083Z,100.00
2023-03-05T05:57:17.418Z,100.00
2023-03-05T05:59:45.445Z,100.00
2023-03-05T06:02:13.414Z,100.00
2023-03-05T06:04:41.386Z,100.00
2023-03-05T06:07:10.700Z,100.00
2023-03-05T06:09:38.800Z,100.00
2023-03-05T06:12:08.064Z,100.00
2023-03-05T06:14:36.309Z,100.00
2023-03-05T06:17:04.247Z,100.00
2023-03-05T06:19:32.200Z,100.00
2023-03-05T06:22:00.178Z,100.00
2023-03-05T06:24:29.526Z,100.00
2023-03-05T06:26:58.609Z,100.00
2023-03-05T06:29:26.642Z,100.00
2023-03-05T06:31:54.529Z,100.00
2023-03-05T06:34:22.492Z,100.00
2023-03-05T06:36:51.075Z,100.00
2023-03-05T06:39:19.044Z,100.00
2023-03-05T06:41:51.920Z,100.00
2023-03-05T06:44:20.076Z,100.00
2023-03-05T06:46:47.982Z,100.00
2023-03-05T06:49:15.945Z,100.00
2023-03-05T06:51:43.879Z,100.00
2023-03-05T06:54:14.824Z,100.00
2023-03-05T06:56:44.804Z,100.00
2023-03-05T06:59:15.814Z,100.00
2023-03-05T07:01:44.299Z,100.00
2023-03-05T07:04:13.168Z,100.00
2023-03-05T07:06:42.241Z,100.00
2023-03-05T07:09:14.131Z,100.00
2023-03-05T07:11:42.197Z,100.00
2023-03-05T07:14:10.245Z,100.00
2023-03-05T07:16:39.615Z,100.00
2023-03-05T07:19:10.958Z,100.00
2023-03-05T07:21:40.053Z,100.00
2023-03-05T07:24:09.437Z,100.00
2023-03-05T07:26:37.604Z,100.00
2023-03-05T07:29:05.811Z,100.00
2023-03-05T07:31:33.818Z,100.00
2023-03-05T07:34:04.414Z,100.00
2023-03-05T07:36:34.953Z,100.00
2023-03-05T07:39:05.025Z,100.00
2023-03-05T07:41:33.270Z,100.00
2023-03-05T07:44:01.442Z,100.00
2023-03-05T07:46:32.762Z,100.00
2023-03-05T07:49:02.403Z,100.00
2023-03-05T07:51:30.321Z,100.00
2023-03-05T07:53:59.960Z,100.00
2023-03-05T07:56:31.909Z,100.00
2023-03-05T07:59:00.403Z,100.00
2023-03-05T08:01:28.596Z,100.00
2023-03-05T08:03:56.685Z,100.00
2023-03-05T08:06:26.224Z,100.00
2023-03-05T08:08:54.298Z,100.00
2023-03-05T08:11:22.245Z,100.00
2023-03-05T08:13:50.438Z,100.00
2023-03-05T08:16:21.100Z,100.00
2023-03-05T08:18:49.660Z,100.00
2023-03-05T08:21:19.810Z,100.00
2023-03-05T08:23:49.547Z,100.00
2023-03-05T08:26:21.905Z,100.00
2023-03-05T08:28:50.316Z,100.00
2023-03-05T08:31:21.292Z,100.00
2023-03-05T08:33:49.452Z,100.00
2023-03-05T08:36:17.876Z,100.00
2023-03-05T08:38:47.419Z,100.00
2023-03-05T08:41:19.114Z,100.00
2023-03-05T08:43:47.266Z,100.00
2023-03-05T08:46:16.957Z,100.00
2023-03-05T08:48:45.450Z,100.00
2023-03-05T08:51:16.341Z,100.00
2023-03-05T08:53:45.877Z,100.00
2023-03-05T08:56:14.130Z,100.00
2023-03-05T08:58:44.419Z,100.00
2023-03-05T09:01:12.977Z,100.00
2023-03-05T09:03:43.338Z,100.00
2023-03-05T09:06:12.688Z,100.00
2023-03-05T09:08:40.786Z,100.00
2023-03-05T09:11:10.794Z,100.00
2023-03-05T09:13:38.774Z,100.00
2023-03-05T09:16:10.190Z,100.00
2023-03-05T09:18:40.248Z,99.80
2023-03-05T09:21:09.976Z,97.64
2023-03-05T09:23:37.942Z,97.38
2023-03-05T09:26:06.742Z,96.63
2023-03-05T09:28:34.920Z,97.98
2023-03-05T09:31:04.635Z,96.03
2023-03-05T09:33:34.755Z,96.46
2023-03-05T09:36:03.555Z,95.21
2023-03-05T09:38:32.130Z,95.71
2023-03-05T09:41:07.884Z,96.12
2023-03-05T09:43:46.966Z,96.14
2023-03-05T09:46:26.214Z,95.10
2023-03-05T09:49:07.473Z,94.37
2023-03-05T09:51:40.437Z,95.13
2023-03-05T09:54:14.333Z,94.27
2023-03-05T09:56:43.987Z,92.91
2023-03-05T09:59:21.357Z,90.73
2023-03-05T10:01:51.805Z,90.56
2023-03-05T10:04:26.810Z,88.98
2023-03-05T10:06:58.177Z,87.47
2023-03-05T10:09:41.784Z,86.37
2023-03-05T10:12:20.844Z,84.84
2023-03-05T10:14:50.452Z,82.94
2023-03-05T10:17:51.915Z,81.63
2023-03-05T10:20:56.948Z,83.26
2023-03-05T10:23:35.116Z,81.51
2023-03-05T10:26:16.184Z,80.93
2023-03-05T10:28:49.528Z,80.77
2023-03-05T10:31:31.694Z,76.99
2023-03-05T10:34:13.539Z,77.21
2023-03-05T10:37:00.936Z,77.42
2023-03-05T10:40:01.504Z,76.42
2023-03-05T10:42:36.530Z,77.05
2023-03-05T10:45:16.565Z,75.88
2023-03-05T10:47:50.502Z,75.02
2023-03-05T10:50:19.957Z,75.85
2023-03-05T10:52:54.009Z,74.29
2023-03-05T10:55:23.757Z,74.65
2023-03-05T10:57:51.768Z,74.69
2023-03-05T11:00:21.758Z,73.60
2023-03-05T11:03:01.496Z,74.51
2023-03-05T11:05:48.603Z,73.70
2023-03-05T11:08:26.762Z,72.58
2023-03-05T11:11:07.720Z,72.04
2023-03-05T11:13:38.582Z,74.30
2023-03-05T11:16:09.002Z,72.45
2023-03-05T11:18:37.801Z,72.79
2023-03-05T11:21:10.915Z,71.98
2023-03-05T11:23:40.285Z,71.37
2023-03-05T11:26:23.294Z,71.27
2023-03-05T11:29:02.453Z,69.92
2023-03-05T11:31:32.005Z,72.31
2023-03-05T11:34:03.526Z,69.77
2023-03-05T11:36:34.668Z,70.21
2023-03-05T11:39:13.040Z,71.50
2023-03-05T11:41:43.579Z,70.02
2023-03-05T11:44:15.683Z,69.63
2023-03-05T11:46:47.383Z,70.06
2023-03-05T11:49:19.829Z,68.60
2023-03-05T11:51:57.445Z,68.59
2023-03-05T11:54:34.980Z,71.24
2023-03-05T11:57:05.443Z,68.79
2023-03-05T11:59:47.404Z,69.49
2023-03-05T12:02:21.935Z,67.72
2023-03-05T12:04:53.487Z,68.00
2023-03-05T12:07:35.561Z,68.01
2023-03-05T12:10:06.338Z,71.37
2023-03-05T12:12:42.135Z,69.82
2023-03-05T12:15:39.973Z,71.36
2023-03-05T12:18:27.004Z,71.62
2023-03-05T12:21:05.840Z,70.45
2023-03-05T12:23:47.588Z,69.27
2023-03-05T12:26:17.301Z,70.30
2023-03-05T12:28:57.319Z,69.69
2023-03-05T12:31:37.975Z,68.05
2023-03-05T12:34:57.687Z,70.67
2023-03-05T12:38:26.831Z,66.48
2023-03-05T12:41:17.776Z,66.41
2023-03-05T12:43:47.110Z,69.65
2023-03-05T12:46:26.280Z,67.72
2023-03-05T12:48:54.334Z,67.47
2023-03-05T12:51:37.839Z,68.90
2023-03-05T12:54:30.735Z,66.47
2023-03-05T12:57:00.497Z,65.37
2023-03-05T12:59:41.634Z,67.41
2023-03-05T13:02:24.625Z,64.64
2023-03-05T13:04:58.577Z,64.81
2023-03-05T13:07:27.791Z,66.87
2023-03-05T13:09:57.377Z,63.58
2023-03-05T13:12:27.462Z,65.60
2023-03-05T13:15:05.549Z,65.92
2023-03-05T13:17:38.206Z,64.58
2023-03-05T13:20:27.796Z,64.74
2023-03-05T13:23:16.527Z,61.99
2023-03-05T13:25:45.092Z,60.73
2023-03-05T13:28:16.339Z,59.38
2023-03-05T13:30:52.904Z,61.36
2023-03-05T13:33:26.269Z,66.88
2023-03-05T13:35:54.462Z,65.65
2023-03-05T13:38:25.482Z,60.10
2023-03-05T13:41:10.039Z,61.72
2023-03-05T13:43:44.397Z,64.41
2023-03-05T13:46:13.847Z,63.77
2023-03-05T13:48:41.827Z,62.33
2023-03-05T13:51:12.004Z,62.04
2023-03-05T13:53:39.970Z,60.87
2023-03-05T13:56:10.300Z,62.11
2023-03-05T13:58:52.251Z,62.29
2023-03-05T14:01:28.823Z,61.43
2023-03-05T14:03:59.177Z,60.66
2023-03-05T14:06:30.987Z,63.04
2023-03-05T14:09:06.919Z,60.54
2023-03-05T14:11:35.609Z,61.23
2023-03-05T14:14:17.933Z,61.08
2023-03-05T14:16:50.083Z,60.03
2023-03-05T14:19:42.289Z,66.20
2023-03-05T14:22:31.366Z,62.12
2023-03-05T14:24:59.502Z,61.24
2023-03-05T14:27:27.845Z,60.63
2023-03-05T14:29:55.778Z,60.43
2023-03-05T14:32:31.437Z,61.08
2023-03-05T14:35:01.317Z,59.89
2023-03-05T14:37:34.349Z,60.47
2023-03-05T14:40:06.400Z,60.69
2023-03-05T14:42:38.632Z,63.84
2023-03-05T14:45:16.083Z,61.00
2023-03-05T14:47:48.346Z,61.35
2023-03-05T14:50:18.175Z,61.02
2023-03-05T14:52:47.162Z,59.82
2023-03-05T14:55:17.315Z,60.90
2023-03-05T14:57:46.887Z,59.86
2023-03-05T15:00:21.591Z,60.94
2023-03-05T15:02:51.519Z,60.50
2023-03-05T15:05:21.366Z,59.24
2023-03-05T15:07:50.685Z,60.55
2023-03-05T15:10:20.275Z,61.71
2023-03-05T15:12:53.236Z,62.25
2023-03-05T15:15:24.906Z,60.04
2023-03-05T15:17:56.173Z,59.30
2023-03-05T15:20:26.417Z,59.59
2023-03-05T15:22:55.080Z,59.07
2023-03-05T15:25:26.750Z,58.89
2023-03-05T15:27:55.114Z,57.87
2023-03-05T15:30:26.885Z,57.79
2023-03-05T15:32:58.030Z,60.50
2023-03-05T15:35:26.933Z,61.63
2023-03-05T15:37:55.162Z,59.00
2023-03-05T15:40:23.682Z,58.47
2023-03-05T15:42:52.027Z,59.50
2023-03-05T15:45:20.118Z,60.47
2023-03-05T15:47:50.573Z,60.00
2023-03-05T15:50:20.936Z,60.41
2023-03-05T15:52:49.217Z,61.80
2023-03-05T15:55:18.349Z,61.90
2023-03-05T15:57:48.899Z,61.31
2023-03-05T16:00:21.075Z,61.43
2023-03-05T16:02:50.020Z,62.38
2023-03-05T16:05:19.732Z,62.01
2023-03-05T16:07:51.735Z,60.77
2023-03-05T16:10:23.404Z,62.05
2023-03-05T16:12:55.060Z,61.44
2023-03-05T16:15:24.256Z,61.56
2023-03-05T16:17:55.641Z,61.54
2023-03-05T16:20:25.065Z,63.39
2023-03-05T16:22:53.092Z,63.22
2023-03-05T16:25:22.081Z,64.61
2023-03-05T16:27:50.149Z,64.26
2023-03-05T16:30:18.682Z,65.22
2023-03-05T16:32:46.661Z,64.07
2023-03-05T16:35:14.910Z,64.84
2023-03-05T16:37:44.318Z,65.09
2023-03-05T16:40:13.667Z,64.19
2023-03-05T16:42:42.101Z,65.16
2023-03-05T16:45:12.155Z,64.29
2023-03-05T16:47:40.773Z,64.28
2023-03-05T16:50:10.594Z,64.62
2023-03-05T16:52:39.156Z,64.93
2023-03-05T16:55:09.183Z,66.73
2023-03-05T16:57:39.476Z,68.98
2023-03-05T17:00:09.213Z,70.68
2023-03-05T17:02:37.207Z,72.37
2023-03-05T17:05:05.796Z,73.71
2023-03-05T17:07:33.806Z,73.81
2023-03-05T17:10:01.812Z,74.54
2023-03-05T17:12:31.150Z,75.76
2023-03-05T17:14:59.072Z,75.50
2023-03-05T17:17:27.034Z,75.78
2023-03-05T17:19:54.959Z,76.65
2023-03-05T17:22:22.944Z,76.46
2023-03-05T17:24:50.984Z,76.09
2023-03-05T17:27:20.581Z,76.17
2023-03-05T17:29:51.559Z,76.53
2023-03-05T17:32:19.708Z,76.97
2023-03-05T17:34:47.703Z,78.14
2023-03-05T17:37:16.317Z,77.95
2023-03-05T17:39:44.254Z,78.93
2023-03-05T17:42:12.227Z,79.13
2023-03-05T17:44:43.484Z,78.80
2023-03-05T17:47:12.821Z,80.93
2023-03-05T17:49:40.771Z,81.54
2023-03-05T17:52:09.127Z,82.05
2023-03-05T17:54:37.112Z,83.41
2023-03-05T17:57:05.238Z,84.15
2023-03-05T17:59:33.162Z,84.31
2023-03-05T18:02:02.346Z,84.33
2023-03-05T18:04:31.739Z,84.24
2023-03-05T18:06:59.724Z,82.46
2023-03-05T18:09:27.657Z,82.58
2023-03-05T18:11:55.677Z,83.28
2023-03-05T18:14:23.706Z,82.54
2023-03-05T18:16:51.785Z,83.06
2023-03-05T18:19:19.838Z,82.46
2023-03-05T18:21:50.790Z,80.08
2023-03-05T18:24:18.803Z,78.82
2023-03-05T18:26:46.825Z,78.39
2023-03-05T18:29:15.458Z,75.82
2023-03-05T18:31:44.428Z,74.11
2023-03-05T18:34:12.343Z,73.40
2023-03-05T18:36:40.332Z,74.64
2023-03-05T18:39:12.274Z,73.56
2023-03-05T18:41:41.625Z,73.89
2023-03-05T18:44:09.526Z,74.10
2023-03-05T18:46:37.500Z,73.75
2023-03-05T18:49:05.531Z,73.73
2023-03-05T18:51:34.949Z,74.17
2023-03-05T18:54:03.584Z,75.36
2023-03-05T18:56:33.013Z,75.25
2023-03-05T18:59:00.942Z,74.48
2023-03-05T19:01:29.404Z,74.28
2023-03-05T19:03:57.420Z,75.44
2023-03-05T19:06:25.416Z,75.31
2023-03-05T19:08:57.414Z,74.69
2023-03-05T19:11:26.163Z,74.48
2023-03-05T19:13:57.044Z,75.54
2023-03-05T19:16:28.128Z,76.46
2023-03-05T19:19:03.244Z,75.20
2023-03-05T19:21:32.407Z,74.30
2023-03-05T19:24:00.933Z,74.38
2023-03-05T19:26:29.712Z,74.42
2023-03-05T19:28:59.839Z,75.21
2023-03-05T19:31:28.583Z,74.86
2023-03-05T19:33:57.395Z,75.41
2023-03-05T19:36:26.220Z,75.07
2023-03-05T19:38:54.227Z,76.24
2023-03-05T19:41:22.411Z,75.35
2023-03-05T19:43:50.956Z,76.28
2023-03-05T19:46:20.342Z,77.11
2023-03-05T19:48:48.446Z,76.26
2023-03-05T19:51:18.261Z,76.20
2023-03-05T19:53:47.277Z,76.13
2023-03-05T19:56:16.854Z,76.18
2023-03-05T19:58:46.049Z,75.92
2023-03-05T20:01:16.657Z,76.38
2023-03-05T20:03:46.941Z,76.52
2023-03-05T20:06:14.936Z,78.01
2023-03-05T20:08:42.882Z,77.94
2023-03-05T20:11:12.556Z,77.72
2023-03-05T20:13:41.465Z,77.39
2023-03-05T20:16:16.863Z,77.71
2023-03-05T20:18:47.293Z,77.25
2023-03-05T20:21:21.622Z,76.92
2023-03-05T20:23:49.672Z,77.85
2023-03-05T20:26:18.922Z,77.34
2023-03-05T20:28:47.110Z,77.54
2023-03-05T20:31:15.227Z,78.03
2023-03-05T20:33:43.198Z,77.15
2023-03-05T20:36:12.803Z,77.86
2023-03-05T20:38:40.805Z,79.43
2023-03-05T20:41:11.545Z,80.22
2023-03-05T20:43:44.762Z,80.10
2023-03-05T20:46:17.669Z,78.58
2023-03-05T20:48:48.171Z,79.45
2023-03-05T20:51:22.618Z,80.16
2023-03-05T20:53:51.167Z,81.43
2023-03-05T20:56:19.167Z,81.99
2023-03-05T20:58:47.185Z,82.37
2023-03-05T21:01:15.301Z,80.93
2023-03-05T21:03:43.537Z,79.91
2023-03-05T21:06:11.429Z,79.83
2023-03-05T21:08:40.833Z,79.69
2023-03-05T21:11:09.885Z,79.69
2023-03-05T21:13:38.971Z,81.11
2023-03-05T21:16:09.140Z,80.83
2023-03-05T21:18:37.557Z,80.39
2023-03-05T21:21:05.773Z,81.27
2023-03-05T21:23:33.741Z,81.03
2023-03-05T21:26:04.157Z,80.21
2023-03-05T21:28:32.160Z,80.55
2023-03-05T21:31:00.200Z,80.26
2023-03-05T21:33:30.167Z,80.90
2023-03-05T21:35:58.981Z,80.67
2023-03-05T21:38:31.309Z,80.78
2023-03-05T21:40:59.936Z,79.86
2023-03-05T21:43:31.268Z,79.22
2023-03-05T21:46:01.137Z,79.21
2023-03-05T21:48:29.285Z,79.65
2023-03-05T21:50:58.500Z,79.55
2023-03-05T21:53:26.655Z,79.01
2023-03-05T21:56:04.216Z,78.82
2023-03-05T21:58:35.192Z,79.19
2023-03-05T22:01:03.555Z,78.97
2023-03-05T22:03:31.794Z,78.96
2023-03-05T22:05:59.987Z,79.33
2023-03-05T22:08:30.271Z,79.10
2023-03-05T22:10:58.985Z,79.47
2023-03-05T22:13:27.045Z,80.17
2023-03-05T22:15:59.512Z,79.43
2023-03-05T22:18:29.396Z,79.39
2023-03-05T22:20:58.367Z,79.42
2023-03-05T22:23:29.328Z,79.82
2023-03-05T22:25:58.099Z,79.21
2023-03-05T22:28:26.705Z,79.48
2023-03-05T22:30:56.768Z,80.32
2023-03-05T22:33:26.522Z,81.87
2023-03-05T22:35:56.435Z,81.95
2023-03-05T22:38:25.528Z,82.08
2023-03-05T22:40:54.460Z,82.08
2023-03-05T22:43:23.053Z,80.86
2023-03-05T22:45:52.042Z,81.20
2023-03-05T22:48:22.013Z,81.12
2023-03-05T22:50:57.506Z,80.61
2023-03-05T22:53:25.607Z,80.70
2023-03-05T22:55:54.137Z,81.38
2023-03-05T22:58:22.721Z,81.38
2023-03-05T23:00:50.850Z,81.33
2023-03-05T23:03:19.519Z,80.16
2023-03-05T23:05:48.961Z,81.17
2023-03-05T23:08:17.660Z,80.76
2023-03-05T23:10:46.425Z,80.77
2023-03-05T23:13:14.656Z,82.83
2023-03-05T23:15:43.029Z,83.61
2023-03-05T23:18:11.051Z,83.15
2023-03-05T23:20:40.704Z,83.39
2023-03-05T23:23:10.305Z,84.42
2023-03-05T23:25:38.645Z,84.12
2023-03-05T23:28:07.690Z,84.02
2023-03-05T23:30:42.026Z,84.22
2023-03-05T23:33:16.911Z,84.56
2023-03-05T23:35:51.831Z,85.64
2023-03-05T23:38:23.279Z,85.11
2023-03-05T23:40:54.974Z,85.31
2023-03-05T23:43:26.304Z,86.62
2023-03-05T23:45:56.282Z,87.06
2023-03-05T23:48:26.686Z,85.64
2023-03-05T23:50:55.280Z,86.36
2023-03-05T23:53:26.458Z,85.00
2023-03-05T23:55:55.926Z,84.19
2023-03-05T23:58:24.926Z,84.89
